Time;durP1;ratioP1;P1;durP2;ratioP2;P2;SDS_P1;SDS_P2;PMS_P1;PMS_P2;Temp;Humidity;BMP_temperature;BMP_pressure;BME280_temperature;BME280_humidity;BME280_pressure;Samples;Min_cycle;Max_cycle;Signal;HPM_P1;HPM_P2
2023/08/22 00:00:36;;;;;;;;;;;28.30;67.10;;;;;;5088928;27;19987;-80
2023/08/22 00:03:05;;;;;;;;;;;28.30;67.20;;;;;;5089568;28;20001;-80
2023/08/22 00:05:31;;;;;;;;;;;28.30;67.30;;;;;;5091470;28;20464;-80
2023/08/22 00:07:59;;;;;;;;;;;28.20;67.30;;;;;;5091902;28;20102;-79
2023/08/22 00:10:27;;;;;;;;;;;28.20;67.50;;;;;;5089620;28;19975;-80
2023/08/22 00:12:54;;;;;;;;;;;28.20;67.60;;;;;;5088357;28;20423;-80
2023/08/22 00:15:20;;;;;;;;;;;28.10;67.60;;;;;;5088340;28;19991;-80
2023/08/22 00:17:47;;;;;;;;;;;28.10;67.70;;;;;;5087394;28;19979;-81
2023/08/22 00:20:14;;;;;;;;;;;28.10;67.80;;;;;;5088548;28;19987;-80
2023/08/22 00:22:41;;;;;;;;;;;28.10;67.80;;;;;;5085580;28;19982;-80
2023/08/22 00:25:09;;;;;;;;;;;28.00;67.90;;;;;;5089562;28;20002;-81
2023/08/22 00:27:36;;;;;;;;;;;28.00;68.00;;;;;;5088761;28;19995;-80
2023/08/22 00:30:03;;;;;;;;;;;28.00;68.10;;;;;;5088789;28;19975;-81
2023/08/22 00:32:29;;;;;;;;;;;27.90;68.10;;;;;;5089037;28;20020;-80
2023/08/22 00:34:56;;;;;;;;;;;27.90;68.30;;;;;;5088930;28;19995;-81
2023/08/22 00:37:24;;;;;;;;;;;27.90;68.30;;;;;;5089779;28;19979;-80
2023/08/22 00:39:51;;;;;;;;;;;27.90;68.40;;;;;;5088344;28;20440;-80
2023/08/22 00:42:17;;;;;;;;;;;27.80;68.50;;;;;;5089619;28;19998;-80
2023/08/22 00:44:44;;;;;;;;;;;27.80;68.50;;;;;;5087999;28;19994;-80
2023/08/22 00:47:10;;;;;;;;;;;27.70;68.60;;;;;;5089224;28;19987;-80
2023/08/22 00:49:37;;;;;;;;;;;27.70;69.20;;;;;;5089471;28;19986;-80
2023/08/22 00:52:04;;;;;;;;;;;27.70;68.90;;;;;;5090155;28;19979;-80
2023/08/22 00:54:32;;;;;;;;;;;27.70;68.90;;;;;;5089329;28;20037;-80
2023/08/22 00:56:59;;;;;;;;;;;27.60;68.80;;;;;;5086586;28;20078;-80
2023/08/22 00:59:26;;;;;;;;;;;27.60;68.90;;;;;;5088274;28;20065;-80
2023/08/22 01:01:53;;;;;;;;;;;27.60;69.10;;;;;;5068041;28;19991;-79
2023/08/22 01:04:19;;;;;;;;;;;27.50;69.10;;;;;;5068228;28;19982;-79
2023/08/22 01:06:49;;;;;;;;;;;27.50;69.20;;;;;;5070223;28;20492;-79
2023/08/22 01:09:19;;;;;;;;;;;27.50;69.30;;;;;;5064975;28;20857;-80
2023/08/22 01:11:50;;;;;;;;;;;27.50;69.40;;;;;;5068838;28;19976;-80
2023/08/22 01:14:18;;;;;;;;;;;27.40;69.40;;;;;;5067831;28;19979;-80
2023/08/22 01:16:45;;;;;;;;;;;27.40;69.50;;;;;;5068182;28;19999;-80
2023/08/22 01:19:13;;;;;;;;;;;27.40;69.60;;;;;;5070591;28;19983;-80
2023/08/22 01:21:46;;;;;;;;;;;27.40;69.70;;;;;;5067285;28;19979;-80
2023/08/22 01:24:12;;;;;;;;;;;27.30;69.70;;;;;;5064415;28;19976;-81
2023/08/22 01:26:39;;;;;;;;;;;27.30;69.80;;;;;;5067939;28;19999;-79
2023/08/22 01:29:09;;;;;;;;;;;27.30;69.90;;;;;;5066233;28;19991;-79
2023/08/22 01:31:39;;;;;;;;;;;27.20;69.80;;;;;;5066318;28;20038;-81
2023/08/22 01:34:09;;;;;;;;;;;27.20;69.90;;;;;;5067304;28;20820;-80
2023/08/22 01:36:37;;;;;;;;;;;27.20;70.00;;;;;;5062861;28;19988;-80
2023/08/22 01:39:07;;;;;;;;;;;27.20;70.20;;;;;;5070082;28;19980;-78
2023/08/22 01:41:34;;;;;;;;;;;27.10;70.20;;;;;;5068383;28;19979;-80
2023/08/22 01:44:01;;;;;;;;;;;27.10;70.30;;;;;;5070453;28;19975;-79
2023/08/22 01:46:27;;;;;;;;;;;27.10;70.40;;;;;;5067579;28;19995;-81
2023/08/22 01:48:54;;;;;;;;;;;27.10;70.50;;;;;;5072141;28;19996;-80
2023/08/22 01:51:20;;;;;;;;;;;27.00;70.60;;;;;;5071849;28;19994;-80
2023/08/22 01:53:47;;;;;;;;;;;27.00;70.80;;;;;;5072286;28;19975;-80
2023/08/22 01:56:15;;;;;;;;;;;27.00;70.80;;;;;;5071115;28;20003;-80
2023/08/22 01:58:41;;;;;;;;;;;26.90;70.80;;;;;;5069152;28;20718;-79
2023/08/22 02:01:08;;;;;;;;;;;26.90;70.90;;;;;;5068126;28;19995;-80
2023/08/22 02:03:35;;;;;;;;;;;26.90;70.90;;;;;;5063832;28;19979;-80
2023/08/22 02:06:02;;;;;;;;;;;26.90;71.00;;;;;;5066406;28;20269;-80
2023/08/22 02:08:28;;;;;;;;;;;26.80;71.10;;;;;;5071710;28;19998;-80
2023/08/22 02:10:55;;;;;;;;;;;26.80;71.90;;;;;;5067216;28;19983;-79
2023/08/22 02:13:22;;;;;;;;;;;26.80;71.20;;;;;;5067114;28;19975;-81
2023/08/22 02:15:49;;;;;;;;;;;26.80;71.30;;;;;;5066063;28;20003;-80
2023/08/22 02:18:16;;;;;;;;;;;26.70;71.30;;;;;;5068295;28;19975;-80
2023/08/22 02:20:43;;;;;;;;;;;26.70;71.50;;;;;;5064245;28;20643;-79
2023/08/22 02:23:10;;;;;;;;;;;26.70;71.50;;;;;;5060086;28;19976;-80
2023/08/22 02:25:36;;;;;;;;;;;26.60;71.50;;;;;;5067714;28;20197;-80
2023/08/22 02:28:03;;;;;;;;;;;26.60;71.60;;;;;;5061363;28;20555;-80
2023/08/22 02:30:31;;;;;;;;;;;26.60;71.60;;;;;;5063256;28;20049;-81
2023/08/22 02:32:57;;;;;;;;;;;26.60;71.70;;;;;;5064041;28;19976;-79
2023/08/22 02:35:24;;;;;;;;;;;26.50;71.70;;;;;;5065566;28;20068;-80
2023/08/22 02:37:51;;;;;;;;;;;26.50;71.80;;;;;;5065222;28;19980;-80
2023/08/22 02:40:17;;;;;;;;;;;26.50;71.90;;;;;;5065435;28;19979;-79
2023/08/22 02:42:44;;;;;;;;;;;26.50;72.00;;;;;;5066293;28;20368;-80
2023/08/22 02:45:11;;;;;;;;;;;26.50;72.00;;;;;;5067756;28;20505;-80
2023/08/22 02:47:38;;;;;;;;;;;26.40;72.00;;;;;;5066914;28;19976;-79
2023/08/22 02:50:06;;;;;;;;;;;26.40;72.10;;;;;;5064815;28;19991;-80
2023/08/22 02:52:33;;;;;;;;;;;26.40;72.20;;;;;;5066003;28;20558;-80
2023/08/22 02:54:59;;;;;;;;;;;26.40;72.20;;;;;;5066816;28;19987;-79
2023/08/22 02:57:26;;;;;;;;;;;26.30;72.20;;;;;;5067105;28;19986;-81
2023/08/22 02:59:52;;;;;;;;;;;26.30;72.20;;;;;;5068691;28;19972;-80
2023/08/22 03:02:19;;;;;;;;;;;26.20;72.30;;;;;;5060257;28;19991;-80
2023/08/22 03:04:47;;;;;;;;;;;26.20;72.40;;;;;;5064273;28;20002;-80
2023/08/22 03:07:13;;;;;;;;;;;26.20;72.40;;;;;;5067879;28;20033;-79
2023/08/22 03:09:40;;;;;;;;;;;26.20;72.50;;;;;;5067795;28;20000;-80
2023/08/22 03:12:07;;;;;;;;;;;26.20;72.60;;;;;;5065738;28;20019;-79
2023/08/22 03:14:33;;;;;;;;;;;26.20;72.70;;;;;;5069791;28;19975;-79
2023/08/22 03:17:00;;;;;;;;;;;26.10;72.70;;;;;;5061426;28;20057;-79
2023/08/22 03:19:26;;;;;;;;;;;26.10;72.80;;;;;;5067825;28;20456;-79
2023/08/22 03:21:54;;;;;;;;;;;26.10;73.70;;;;;;5060569;28;19979;-80
2023/08/22 03:24:21;;;;;;;;;;;26.10;73.00;;;;;;5064787;28;19972;-80
2023/08/22 03:26:47;;;;;;;;;;;26.00;73.00;;;;;;5065515;28;19998;-81
2023/08/22 03:29:14;;;;;;;;;;;26.00;73.00;;;;;;5067226;28;20012;-79
2023/08/22 03:31:40;;;;;;;;;;;26.00;73.10;;;;;;5062259;28;20101;-79
2023/08/22 03:34:07;;;;;;;;;;;25.90;73.10;;;;;;5065583;28;19990;-80
2023/08/22 03:36:33;;;;;;;;;;;25.90;73.90;;;;;;5065734;28;19998;-80
2023/08/22 03:39:01;;;;;;;;;;;25.90;73.20;;;;;;5063289;28;19983;-78
2023/08/22 03:41:28;;;;;;;;;;;25.80;73.20;;;;;;5064650;28;19991;-79
2023/08/22 03:43:54;;;;;;;;;;;25.90;73.40;;;;;;5067616;28;20010;-80
2023/08/22 03:46:21;;;;;;;;;;;25.80;74.10;;;;;;5067037;28;19998;-80
2023/08/22 03:48:47;;;;;;;;;;;25.80;73.40;;;;;;5067763;28;19998;-79
2023/08/22 03:51:14;;;;;;;;;;;25.80;73.50;;;;;;5072307;28;19986;-78
2023/08/22 03:53:40;;;;;;;;;;;25.80;73.50;;;;;;5066653;28;19987;-80
2023/08/22 03:56:08;;;;;;;;;;;25.70;73.60;;;;;;5065440;28;19991;-79
2023/08/22 03:58:35;;;;;;;;;;;25.70;73.60;;;;;;5068313;28;19999;-79
2023/08/22 04:01:03;;;;;;;;;;;25.70;73.70;;;;;;5065503;28;20458;-80
2023/08/22 04:03:29;;;;;;;;;;;25.60;73.70;;;;;;5065594;28;19975;-79
2023/08/22 04:05:57;;;;;;;;;;;25.60;73.70;;;;;;5070263;28;19995;-79
2023/08/22 04:08:24;;;;;;;;;;;25.60;73.80;;;;;;5073546;28;19971;-81
2023/08/22 04:10:51;;;;;;;;;;;25.60;73.90;;;;;;5070089;28;19979;-81
2023/08/22 04:13:19;;;;;;;;;;;25.60;74.00;;;;;;5069288;28;19987;-81
2023/08/22 04:15:46;;;;;;;;;;;25.50;73.90;;;;;;5067955;28;20006;-80
2023/08/22 04:18:12;;;;;;;;;;;25.50;74.00;;;;;;5066476;28;19999;-81
2023/08/22 04:20:39;;;;;;;;;;;25.50;74.10;;;;;;5071192;28;20002;-80
2023/08/22 04:23:06;;;;;;;;;;;25.40;74.10;;;;;;5068683;28;20057;-79
2023/08/22 04:25:32;;;;;;;;;;;25.40;74.20;;;;;;5073500;28;19991;-80
2023/08/22 04:27:59;;;;;;;;;;;25.40;74.30;;;;;;5071382;28;20011;-79
2023/08/22 04:30:27;;;;;;;;;;;25.40;74.40;;;;;;5070161;28;20427;-80
2023/08/22 04:32:53;;;;;;;;;;;25.30;74.30;;;;;;5072093;28;20974;-80
2023/08/22 04:35:20;;;;;;;;;;;25.30;74.40;;;;;;5074039;28;19991;-80
2023/08/22 04:37:46;;;;;;;;;;;25.30;74.50;;;;;;5075985;28;19982;-80
2023/08/22 04:40:13;;;;;;;;;;;25.30;74.60;;;;;;5074934;28;19979;-79
2023/08/22 04:42:39;;;;;;;;;;;25.30;74.60;;;;;;5070261;28;20007;-79
2023/08/22 04:45:07;;;;;;;;;;;25.20;74.60;;;;;;5070790;28;19991;-78
2023/08/22 04:47:35;;;;;;;;;;;25.20;74.80;;;;;;5072566;28;19995;-80
2023/08/22 04:50:01;;;;;;;;;;;25.20;74.90;;;;;;5068025;28;20006;-80
2023/08/22 04:52:28;;;;;;;;;;;25.20;75.00;;;;;;5063769;28;19979;-77
2023/08/22 04:54:55;;;;;;;;;;;25.00;75.60;;;;;;5068266;28;19991;-79
2023/08/22 04:57:23;;;;;;;;;;;24.60;77.80;;;;;;5067367;28;19976;-79
2023/08/22 04:59:50;;;;;;;;;;;24.40;78.40;;;;;;5069594;28;20078;-80
2023/08/22 05:02:17;;;;;;;;;;;24.30;78.70;;;;;;5062993;28;19995;-79
2023/08/22 05:04:45;;;;;;;;;;;24.30;78.80;;;;;;5068039;28;20072;-79
2023/08/22 05:07:11;;;;;;;;;;;24.30;78.80;;;;;;5062744;28;20015;-79
2023/08/22 05:09:38;;;;;;;;;;;24.40;78.80;;;;;;5067678;28;20025;-80
2023/08/22 05:12:05;;;;;;;;;;;24.40;78.70;;;;;;5065732;28;20607;-79
2023/08/22 05:14:33;;;;;;;;;;;24.40;78.60;;;;;;5060277;28;19982;-80
2023/08/22 05:16:59;;;;;;;;;;;24.40;79.40;;;;;;5063028;28;19998;-79
2023/08/22 05:19:26;;;;;;;;;;;24.40;78.50;;;;;;5064904;28;19982;-79
2023/08/22 05:21:54;;;;;;;;;;;24.40;78.50;;;;;;5068565;28;19989;-79
2023/08/22 05:24:20;;;;;;;;;;;24.40;78.50;;;;;;5067666;28;19979;-78
2023/08/22 05:26:47;;;;;;;;;;;24.40;78.40;;;;;;5067650;28;20717;-79
2023/08/22 05:29:14;;;;;;;;;;;24.50;78.50;;;;;;5069919;28;20002;-80
2023/08/22 05:31:41;;;;;;;;;;;24.50;78.50;;;;;;5066691;28;20717;-79
2023/08/22 05:34:07;;;;;;;;;;;24.50;78.60;;;;;;5066168;28;19979;-80
2023/08/22 05:36:34;;;;;;;;;;;24.40;78.50;;;;;;5064276;28;19992;-79
2023/08/22 05:39:01;;;;;;;;;;;24.40;78.50;;;;;;5063700;28;19976;-79
2023/08/22 05:41:28;;;;;;;;;;;24.40;78.60;;;;;;5073026;28;19983;-79
2023/08/22 05:43:54;;;;;;;;;;;24.40;78.60;;;;;;5069496;28;19986;-79
2023/08/22 05:46:21;;;;;;;;;;;24.40;78.60;;;;;;5062330;28;19999;-79
2023/08/22 05:48:48;;;;;;;;;;;24.40;78.70;;;;;;5071038;28;20031;-79
2023/08/22 05:51:14;;;;;;;;;;;24.30;78.70;;;;;;5069836;28;20353;-79
2023/08/22 05:53:41;;;;;;;;;;;24.30;78.80;;;;;;5068818;28;20356;-80
2023/08/22 05:56:08;;;;;;;;;;;24.40;78.90;;;;;;5065333;28;20002;-79
2023/08/22 05:58:35;;;;;;;;;;;24.30;78.90;;;;;;5063313;28;19976;-80
2023/08/22 06:01:06;;;;;;;;;;;24.30;79.00;;;;;;5067214;28;19998;-79
2023/08/22 06:03:33;;;;;;;;;;;24.30;79.10;;;;;;5067259;28;20399;-79
2023/08/22 06:05:59;;;;;;;;;;;24.30;79.10;;;;;;5069621;28;20002;-79
2023/08/22 06:08:26;;;;;;;;;;;24.30;79.20;;;;;;5070404;28;19979;-79
2023/08/22 06:10:52;;;;;;;;;;;24.30;79.30;;;;;;5067554;28;19995;-79
2023/08/22 06:13:20;;;;;;;;;;;24.30;79.40;;;;;;5067246;28;19986;-80
2023/08/22 06:15:47;;;;;;;;;;;24.30;79.50;;;;;;5060510;28;19999;-79
2023/08/22 06:18:13;;;;;;;;;;;24.30;79.50;;;;;;5068389;28;19999;-80
2023/08/22 06:20:42;;;;;;;;;;;24.30;79.60;;;;;;5062484;28;20447;-80
2023/08/22 06:23:09;;;;;;;;;;;24.20;79.60;;;;;;5068494;28;19975;-78
2023/08/22 06:25:37;;;;;;;;;;;24.20;79.70;;;;;;5065563;28;20747;-79
2023/08/22 06:28:04;;;;;;;;;;;24.20;79.70;;;;;;5065573;28;20487;-79
2023/08/22 06:30:32;;;;;;;;;;;24.20;79.80;;;;;;5063595;28;19995;-79
2023/08/22 06:32:59;;;;;;;;;;;24.20;79.80;;;;;;5067729;28;19983;-78
2023/08/22 06:35:28;;;;;;;;;;;24.30;79.90;;;;;;5066875;28;20034;-79
2023/08/22 06:37:54;;;;;;;;;;;24.20;79.90;;;;;;5067486;28;20033;-80
2023/08/22 06:40:22;;;;;;;;;;;24.20;79.80;;;;;;5065864;28;19979;-80
2023/08/22 06:42:49;;;;;;;;;;;24.20;79.90;;;;;;5052077;28;19979;-80
2023/08/22 06:45:15;;;;;;;;;;;24.20;79.80;;;;;;5058841;28;20009;-78
2023/08/22 06:47:43;;;;;;;;;;;24.20;80.00;;;;;;5058528;28;19975;-79
2023/08/22 06:50:10;;;;;;;;;;;24.20;79.90;;;;;;5059910;28;19996;-79
2023/08/22 06:52:37;;;;;;;;;;;24.20;80.00;;;;;;5061071;28;20023;-79
2023/08/22 06:55:03;;;;;;;;;;;24.20;79.90;;;;;;5064016;28;19998;-80
2023/08/22 06:57:30;;;;;;;;;;;24.20;79.90;;;;;;5062632;28;19976;-79
2023/08/22 06:59:56;;;;;;;;;;;24.20;79.90;;;;;;5066278;28;19982;-78
2023/08/22 07:02:23;;;;;;;;;;;24.20;80.00;;;;;;5060812;28;19991;-79
2023/08/22 07:04:51;;;;;;;;;;;24.30;79.90;;;;;;5065268;28;19995;-79
2023/08/22 07:07:17;;;;;;;;;;;24.30;79.90;;;;;;5065630;28;19986;-79
2023/08/22 07:09:44;;;;;;;;;;;24.20;79.80;;;;;;5067947;28;20026;-79
2023/08/22 07:12:10;;;;;;;;;;;24.30;80.00;;;;;;5066628;28;19979;-79
2023/08/22 07:14:42;;;;;;;;;;;24.30;80.20;;;;;;5068437;28;20286;-79
2023/08/22 07:17:08;;;;;;;;;;;24.30;80.10;;;;;;5074325;28;19998;-79
2023/08/22 07:19:35;;;;;;;;;;;24.30;80.30;;;;;;5073937;28;19982;-78
2023/08/22 07:22:03;;;;;;;;;;;24.30;80.30;;;;;;5067371;28;19980;-79
2023/08/22 07:24:29;;;;;;;;;;;24.30;80.30;;;;;;5067402;28;19976;-80
2023/08/22 07:26:56;;;;;;;;;;;24.30;80.50;;;;;;5071981;28;19979;-80
2023/08/22 07:29:22;;;;;;;;;;;24.30;80.60;;;;;;5071273;28;19982;-79
2023/08/22 07:31:49;;;;;;;;;;;24.30;80.40;;;;;;5062645;28;20002;-79
2023/08/22 07:34:15;;;;;;;;;;;24.40;80.50;;;;;;5069373;28;19987;-79
2023/08/22 07:36:44;;;;;;;;;;;24.40;80.80;;;;;;5063826;28;19995;-79
2023/08/22 07:39:11;;;;;;;;;;;24.40;80.80;;;;;;5073533;28;20015;-79
2023/08/22 07:41:38;;;;;;;;;;;24.40;80.50;;;;;;5062412;28;20495;-78
2023/08/22 07:44:05;;;;;;;;;;;24.40;80.50;;;;;;5063775;28;19983;-78
2023/08/22 07:46:32;;;;;;;;;;;24.40;80.50;;;;;;5061343;28;20003;-78
2023/08/22 07:48:58;;;;;;;;;;;24.40;80.70;;;;;;5066989;28;19976;-78
2023/08/22 07:51:25;;;;;;;;;;;24.50;80.70;;;;;;5068027;28;19988;-77
2023/08/22 07:53:51;;;;;;;;;;;24.50;80.30;;;;;;5066435;28;19980;-78
2023/08/22 07:56:19;;;;;;;;;;;24.50;79.80;;;;;;5063145;28;19992;-78
2023/08/22 07:58:47;;;;;;;;;;;24.50;80.60;;;;;;5068704;28;19998;-77
2023/08/22 08:01:14;;;;;;;;;;;24.50;80.70;;;;;;5063318;28;20018;-78
2023/08/22 08:03:40;;;;;;;;;;;24.50;80.50;;;;;;5064756;28;19983;-78
2023/08/22 08:06:07;;;;;;;;;;;24.50;80.40;;;;;;5062024;28;19996;-78
2023/08/22 08:08:34;;;;;;;;;;;24.60;80.40;;;;;;5068924;28;19999;-78
2023/08/22 08:11:00;;;;;;;;;;;24.60;80.50;;;;;;5063358;28;20469;-78
2023/08/22 08:13:28;;;;;;;;;;;24.60;80.50;;;;;;5062632;28;19976;-77
2023/08/22 08:15:54;;;;;;;;;;;24.60;80.30;;;;;;5070183;28;19999;-78
2023/08/22 08:18:21;;;;;;;;;;;24.70;80.40;;;;;;5067246;28;19986;-79
2023/08/22 08:20:48;;;;;;;;;;;24.70;80.50;;;;;;5069510;28;19984;-79
2023/08/22 08:23:14;;;;;;;;;;;24.60;80.20;;;;;;5070694;28;19979;-79
2023/08/22 08:25:41;;;;;;;;;;;24.70;80.20;;;;;;5067677;28;19995;-79
2023/08/22 08:28:08;;;;;;;;;;;24.70;80.20;;;;;;5064317;28;20345;-81
2023/08/22 08:30:36;;;;;;;;;;;24.70;80.10;;;;;;5065737;28;20113;-79
2023/08/22 08:33:03;;;;;;;;;;;24.70;80.00;;;;;;5066941;28;19979;-78
2023/08/22 08:35:30;;;;;;;;;;;24.80;79.90;;;;;;5063687;28;19995;-77
2023/08/22 08:37:57;;;;;;;;;;;24.80;80.10;;;;;;5069558;28;20452;-80
2023/08/22 08:40:23;;;;;;;;;;;24.90;80.40;;;;;;5063674;28;20421;-78
2023/08/22 08:42:50;;;;;;;;;;;24.90;80.30;;;;;;5064982;28;19987;-79
2023/08/22 08:45:16;;;;;;;;;;;24.90;80.00;;;;;;5065896;28;19999;-80
2023/08/22 08:47:45;;;;;;;;;;;24.90;79.80;;;;;;5060000;28;19988;-78
2023/08/22 08:50:11;;;;;;;;;;;24.90;79.70;;;;;;5070760;28;19995;-79
2023/08/22 08:52:38;;;;;;;;;;;25.00;79.60;;;;;;5070594;28;19975;-79
2023/08/22 08:55:05;;;;;;;;;;;25.00;79.50;;;;;;5072338;28;20003;-78
2023/08/22 08:57:32;;;;;;;;;;;25.10;79.30;;;;;;5068787;28;19986;-79
2023/08/22 09:00:00;;;;;;;;;;;25.10;79.10;;;;;;5064232;28;20034;-78
2023/08/22 09:02:28;;;;;;;;;;;25.10;78.70;;;;;;5056621;28;19995;-80
2023/08/22 09:04:56;;;;;;;;;;;25.20;78.50;;;;;;5071427;28;19996;-78
2023/08/22 09:07:22;;;;;;;;;;;25.30;78.30;;;;;;5070237;28;19979;-80
2023/08/22 09:09:49;;;;;;;;;;;25.30;78.10;;;;;;5064864;28;19976;-79
2023/08/22 09:12:15;;;;;;;;;;;25.40;77.60;;;;;;5059198;28;19998;-79
2023/08/22 09:14:44;;;;;;;;;;;25.40;77.50;;;;;;5061201;28;20013;-78
2023/08/22 09:17:14;;;;;;;;;;;25.50;77.20;;;;;;5064972;28;20532;-79
2023/08/22 09:19:40;;;;;;;;;;;25.60;76.90;;;;;;5069721;28;19979;-78
2023/08/22 09:22:08;;;;;;;;;;;25.60;76.40;;;;;;5068387;28;19975;-79
2023/08/22 09:24:35;;;;;;;;;;;25.60;76.20;;;;;;5068517;28;19983;-80
2023/08/22 09:27:02;;;;;;;;;;;25.70;76.10;;;;;;5067917;28;20003;-80
2023/08/22 09:29:29;;;;;;;;;;;25.80;75.90;;;;;;5062253;28;19976;-79
2023/08/22 09:31:57;;;;;;;;;;;25.80;75.70;;;;;;5063222;28;20017;-80
2023/08/22 09:34:23;;;;;;;;;;;25.90;75.30;;;;;;5071753;28;19983;-79
2023/08/22 09:36:52;;;;;;;;;;;25.90;75.00;;;;;;5067095;28;19999;-79
2023/08/22 09:39:23;;;;;;;;;;;26.00;74.70;;;;;;5070505;28;20442;-79
2023/08/22 09:41:52;;;;;;;;;;;26.10;74.60;;;;;;5070041;28;19976;-80
2023/08/22 09:44:20;;;;;;;;;;;26.20;74.30;;;;;;5063814;28;19972;-80
2023/08/22 09:46:49;;;;;;;;;;;26.20;73.40;;;;;;5060367;28;19995;-80
2023/08/22 09:49:16;;;;;;;;;;;26.20;73.40;;;;;;5065753;28;19972;-80
2023/08/22 09:51:43;;;;;;;;;;;26.30;73.20;;;;;;5065996;28;20029;-80
2023/08/22 09:54:10;;;;;;;;;;;26.40;73.70;;;;;;5072330;28;19971;-80
2023/08/22 09:56:38;;;;;;;;;;;26.40;72.20;;;;;;5065338;28;19987;-79
2023/08/22 09:59:05;;;;;;;;;;;26.50;71.80;;;;;;5058942;28;20874;-79
2023/08/22 10:01:33;;;;;;;;;;;26.60;71.80;;;;;;5060866;28;19988;-80
2023/08/22 10:04:02;;;;;;;;;;;26.60;71.80;;;;;;5062998;28;19972;-80
2023/08/22 10:06:31;;;;;;;;;;;26.70;71.20;;;;;;5086740;23;20002;-79
2023/08/22 10:08:59;;;;;;;;;;;26.70;70.70;;;;;;5057994;28;20338;-80
2023/08/22 10:11:29;;;;;;;;;;;26.80;70.40;;;;;;5063470;28;19992;-78
2023/08/22 10:13:57;;;;;;;;;;;26.90;70.20;;;;;;5061028;28;19982;-79
2023/08/22 10:16:28;;;;;;;;;;;27.00;70.20;;;;;;5062317;28;20006;-79
2023/08/22 10:19:00;;;;;;;;;;;27.00;70.00;;;;;;5060115;28;19983;-80
2023/08/22 10:21:26;;;;;;;;;;;27.10;70.00;;;;;;5062603;28;20022;-80
2023/08/22 10:23:58;;;;;;;;;;;27.10;69.20;;;;;;5061371;28;19976;-80
2023/08/22 10:26:26;;;;;;;;;;;27.20;68.80;;;;;;5063752;28;19992;-78
2023/08/22 10:29:12;;;;;;;;;;;27.20;68.70;;;;;;5059268;28;20571;-78
2023/08/22 10:31:53;;;;;;;;;;;27.30;68.80;;;;;;5060606;28;20200;-78
2023/08/22 10:34:21;;;;;;;;;;;27.40;68.40;;;;;;5061146;28;19982;-78
2023/08/22 10:36:56;;;;;;;;;;;27.40;68.10;;;;;;5055611;28;20003;-79
2023/08/22 10:39:36;;;;;;;;;;;27.50;68.30;;;;;;5059040;28;19978;-79
2023/08/22 10:42:02;;;;;;;;;;;27.60;68.20;;;;;;5061656;28;19979;-79
2023/08/22 10:44:30;;;;;;;;;;;27.70;68.00;;;;;;5062139;28;20075;-79
2023/08/22 10:47:00;;;;;;;;;;;27.70;68.20;;;;;;5056446;28;20010;-80
2023/08/22 10:49:30;;;;;;;;;;;27.80;67.30;;;;;;5059063;28;19980;-79
2023/08/22 10:52:00;;;;;;;;;;;27.90;67.20;;;;;;5058817;28;20044;-80
2023/08/22 10:54:27;;;;;;;;;;;27.90;66.90;;;;;;5058564;28;19976;-80
2023/08/22 10:57:15;;;;;;;;;;;28.00;66.90;;;;;;5063600;28;19991;-79
2023/08/22 10:59:53;;;;;;;;;;;28.10;66.60;;;;;;5057677;28;20238;-80
2023/08/22 11:02:20;;;;;;;;;;;28.20;66.60;;;;;;5063222;28;20035;-80
2023/08/22 11:04:48;;;;;;;;;;;28.20;66.30;;;;;;5067124;28;20498;-80
2023/08/22 11:07:16;;;;;;;;;;;28.30;66.30;;;;;;5060393;28;19991;-80
2023/08/22 11:09:43;;;;;;;;;;;28.30;66.20;;;;;;5061678;28;19987;-80
2023/08/22 11:12:17;;;;;;;;;;;28.40;66.80;;;;;;5062180;28;21027;-80
2023/08/22 11:14:44;;;;;;;;;;;28.50;65.70;;;;;;5063808;28;19979;-80
2023/08/22 11:17:13;;;;;;;;;;;28.50;65.40;;;;;;5065898;28;21526;-78
2023/08/22 11:19:40;;;;;;;;;;;28.60;65.30;;;;;;5068682;28;19983;-80
2023/08/22 11:22:07;;;;;;;;;;;28.60;65.10;;;;;;5062117;28;19976;-79
2023/08/22 11:24:34;;;;;;;;;;;28.60;65.30;;;;;;5065132;28;19986;-79
2023/08/22 11:27:02;;;;;;;;;;;28.60;65.10;;;;;;5068577;28;20014;-79
2023/08/22 11:29:28;;;;;;;;;;;28.60;65.10;;;;;;5063197;28;19975;-80
2023/08/22 11:31:55;;;;;;;;;;;28.70;65.40;;;;;;5059232;28;19999;-80
2023/08/22 11:34:22;;;;;;;;;;;28.70;65.10;;;;;;5062337;28;19981;-80
2023/08/22 11:36:48;;;;;;;;;;;28.70;65.30;;;;;;5060419;28;20303;-80
2023/08/22 11:39:16;;;;;;;;;;;28.70;64.80;;;;;;5062572;28;19979;-81
2023/08/22 11:41:43;;;;;;;;;;;28.80;65.00;;;;;;5062637;28;20566;-80
2023/08/22 11:44:13;;;;;;;;;;;28.80;65.00;;;;;;5063642;28;19998;-80
2023/08/22 11:46:40;;;;;;;;;;;28.80;64.80;;;;;;5063877;28;20054;-79
2023/08/22 11:49:07;;;;;;;;;;;28.90;64.90;;;;;;5062047;28;19976;-80
2023/08/22 11:51:34;;;;;;;;;;;28.90;64.80;;;;;;5070373;28;20492;-84
2023/08/22 11:54:01;;;;;;;;;;;29.00;64.80;;;;;;5075003;28;20693;-84
2023/08/22 11:56:29;;;;;;;;;;;29.00;64.30;;;;;;5077236;28;20489;-83
2023/08/22 11:58:56;;;;;;;;;;;29.10;64.50;;;;;;5068982;28;20358;-83
2023/08/22 12:01:23;;;;;;;;;;;29.20;64.40;;;;;;5074756;28;20090;-83
2023/08/22 12:03:50;;;;;;;;;;;29.30;64.10;;;;;;5076185;28;19976;-84
2023/08/22 12:06:16;;;;;;;;;;;29.30;64.10;;;;;;5073459;28;20491;-83
2023/08/22 12:08:43;;;;;;;;;;;29.40;64.00;;;;;;5074546;28;19979;-83
2023/08/22 12:11:23;;;;;;;;;;;29.50;63.60;;;;;;5076301;28;20053;-84
2023/08/22 12:13:51;;;;;;;;;;;29.60;63.20;;;;;;5077485;28;19986;-84
2023/08/22 12:16:17;;;;;;;;;;;29.60;62.90;;;;;;5079660;28;19995;-84
2023/08/22 12:18:44;;;;;;;;;;;29.70;62.90;;;;;;5075498;28;20577;-83
2023/08/22 12:21:10;;;;;;;;;;;29.70;62.90;;;;;;5070820;28;20328;-83
2023/08/22 12:23:37;;;;;;;;;;;29.80;62.40;;;;;;5073817;28;20465;-83
2023/08/22 12:26:04;;;;;;;;;;;29.90;62.40;;;;;;5069758;28;20031;-85
2023/08/22 12:28:30;;;;;;;;;;;29.90;62.30;;;;;;5068239;28;20328;-84
2023/08/22 12:30:58;;;;;;;;;;;30.00;61.80;;;;;;5062879;28;20237;-84
2023/08/22 12:33:25;;;;;;;;;;;30.00;61.90;;;;;;5063850;28;19976;-84
2023/08/22 12:35:51;;;;;;;;;;;30.10;61.50;;;;;;5071965;28;19998;-84
2023/08/22 12:38:18;;;;;;;;;;;30.20;61.20;;;;;;5069019;28;19998;-84
2023/08/22 12:40:44;;;;;;;;;;;30.20;61.10;;;;;;5062246;28;19980;-84
2023/08/22 12:43:11;;;;;;;;;;;30.30;61.40;;;;;;5057279;28;19982;-84
2023/08/22 12:45:38;;;;;;;;;;;30.30;61.30;;;;;;5067305;28;20550;-84
2023/08/22 12:48:06;;;;;;;;;;;30.40;61.10;;;;;;5069789;28;19975;-83
2023/08/22 12:50:33;;;;;;;;;;;30.40;61.10;;;;;;5062289;28;19975;-83
2023/08/22 12:53:00;;;;;;;;;;;30.40;60.80;;;;;;5067365;28;20300;-83
2023/08/22 12:55:28;;;;;;;;;;;30.50;61.00;;;;;;5066067;28;20011;-80
2023/08/22 12:57:55;;;;;;;;;;;30.50;60.10;;;;;;5070018;28;20097;-81
2023/08/22 13:00:22;;;;;;;;;;;30.50;60.40;;;;;;5059199;28;19975;-79
2023/08/22 13:02:48;;;;;;;;;;;30.60;60.10;;;;;;5061093;28;19979;-82
2023/08/22 13:05:16;;;;;;;;;;;30.60;60.20;;;;;;5063827;28;19979;-82
2023/08/22 13:07:44;;;;;;;;;;;30.70;60.20;;;;;;5059139;28;20320;-81
2023/08/22 13:10:10;;;;;;;;;;;30.70;60.30;;;;;;5059516;28;20062;-82
2023/08/22 13:12:37;;;;;;;;;;;30.80;60.40;;;;;;5058679;28;19992;-80
2023/08/22 13:15:04;;;;;;;;;;;30.80;59.50;;;;;;5059936;28;19983;-83
2023/08/22 13:17:31;;;;;;;;;;;30.90;59.50;;;;;;5057676;28;19995;-82
2023/08/22 13:19:58;;;;;;;;;;;30.90;59.60;;;;;;5059930;28;20058;-80
2023/08/22 13:22:25;;;;;;;;;;;30.90;59.50;;;;;;5064197;28;19979;-79
2023/08/22 13:24:52;;;;;;;;;;;31.00;59.40;;;;;;5062953;28;19982;-81
2023/08/22 13:27:19;;;;;;;;;;;31.00;59.20;;;;;;5061801;28;20002;-84
2023/08/22 13:29:46;;;;;;;;;;;31.00;59.00;;;;;;5065419;28;20007;-83
2023/08/22 13:32:12;;;;;;;;;;;31.10;58.80;;;;;;5064647;28;20005;-81
2023/08/22 13:34:39;;;;;;;;;;;31.10;58.70;;;;;;5059068;28;19980;-81
2023/08/22 13:37:05;;;;;;;;;;;31.10;58.80;;;;;;5059313;28;19995;-81
2023/08/22 13:39:34;;;;;;;;;;;31.20;58.80;;;;;;5057142;28;19983;-82
2023/08/22 13:42:00;;;;;;;;;;;31.20;58.40;;;;;;5057355;28;19979;-81
2023/08/22 13:44:27;;;;;;;;;;;31.30;58.60;;;;;;5063718;28;19979;-82
2023/08/22 13:46:54;;;;;;;;;;;31.30;58.40;;;;;;5056164;28;19995;-83
2023/08/22 13:49:20;;;;;;;;;;;31.30;58.00;;;;;;5060910;28;20546;-82
2023/08/22 13:51:47;;;;;;;;;;;31.40;58.50;;;;;;5062329;28;19995;-82
2023/08/22 13:54:16;;;;;;;;;;;31.50;58.20;;;;;;5064350;28;19975;-81
2023/08/22 13:56:44;;;;;;;;;;;31.60;57.80;;;;;;5062478;28;20126;-82
2023/08/22 13:59:10;;;;;;;;;;;31.60;57.70;;;;;;5063686;28;19971;-85
2023/08/22 14:01:37;;;;;;;;;;;31.60;57.50;;;;;;5057076;28;19995;-79
2023/08/22 14:04:04;;;;;;;;;;;31.70;57.50;;;;;;5060474;28;19993;-81
2023/08/22 14:06:30;;;;;;;;;;;31.70;57.90;;;;;;5055509;28;20474;-83
2023/08/22 14:08:57;;;;;;;;;;;31.80;57.80;;;;;;5052919;28;20431;-81
2023/08/22 14:11:24;;;;;;;;;;;31.80;57.70;;;;;;5059833;28;19982;-81
2023/08/22 14:13:52;;;;;;;;;;;31.80;57.50;;;;;;5060540;28;19983;-80
2023/08/22 14:16:18;;;;;;;;;;;31.90;57.00;;;;;;5061280;28;19995;-82